sensor_id;sensor_type;location;lat;lon;timestamp;temperature;humidity
45108;DHT22;30869;51.188;6.556;2022-11-15T00:00:46;8.40;99.90
45108;DHT22;30869;51.188;6.556;2022-11-15T00:03:23;8.40;99.90
45108;DHT22;30869;51.188;6.556;2022-11-15T00:05:53;8.50;99.90
45108;DHT22;30869;51.188;6.556;2022-11-15T00:08:19;8.60;99.90
45108;DHT22;30869;51.188;6.556;2022-11-15T00:10:58;8.60;99.90
45108;DHT22;30869;51.188;6.556;2022-11-15T00:13:25;8.60;99.90
45108;DHT22;30869;51.188;6.556;2022-11-15T00:15:51;8.60;99.90
45108;DHT22;30869;51.188;6.556;2022-11-15T00:18:18;8.60;99.90
45108;DHT22;30869;51.188;6.556;2022-11-15T00:20:44;8.50;99.90
45108;DHT22;30869;51.188;6.556;2022-11-15T00:23:10;8.50;99.90
45108;DHT22;30869;51.188;6.556;2022-11-15T00:25:36;8.60;99.90
45108;DHT22;30869;51.188;6.556;2022-11-15T00:28:03;8.80;99.90
45108;DHT22;30869;51.188;6.556;2022-11-15T00:30:29;8.70;99.90
45108;DHT22;30869;51.188;6.556;2022-11-15T00:32:55;8.90;99.90
45108;DHT22;30869;51.188;6.556;2022-11-15T00:35:22;8.80;99.90
45108;DHT22;30869;51.188;6.556;2022-11-15T00:37:48;9.00;99.90
45108;DHT22;30869;51.188;6.556;2022-11-15T00:40:14;9.00;99.90
45108;DHT22;30869;51.188;6.556;2022-11-15T00:42:41;8.90;99.90
45108;DHT22;30869;51.188;6.556;2022-11-15T00:45:07;8.80;99.90
45108;DHT22;30869;51.188;6.556;2022-11-15T00:47:33;8.80;99.90
45108;DHT22;30869;51.188;6.556;2022-11-15T00:49:59;8.80;99.90
45108;DHT22;30869;51.188;6.556;2022-11-15T00:52:25;8.90;99.90
45108;DHT22;30869;51.188;6.556;2022-11-15T00:54:51;8.80;99.90
45108;DHT22;30869;51.188;6.556;2022-11-15T00:57:17;9.10;99.90
45108;DHT22;30869;51.188;6.556;2022-11-15T00:59:43;9.00;99.90
45108;DHT22;30869;51.188;6.556;2022-11-15T01:02:12;8.80;99.90
45108;DHT22;30869;51.188;6.556;2022-11-15T01:04:38;9.00;99.90
45108;DHT22;30869;51.188;6.556;2022-11-15T01:07:04;8.90;99.90
45108;DHT22;30869;51.188;6.556;2022-11-15T01:09:32;9.10;99.90
45108;DHT22;30869;51.188;6.556;2022-11-15T01:11:58;8.90;99.90
45108;DHT22;30869;51.188;6.556;2022-11-15T01:14:24;9.10;99.90
45108;DHT22;30869;51.188;6.556;2022-11-15T01:16:52;9.00;99.90
45108;DHT22;30869;51.188;6.556;2022-11-15T01:19:18;9.00;99.90
45108;DHT22;30869;51.188;6.556;2022-11-15T01:21:44;9.00;99.90
45108;DHT22;30869;51.188;6.556;2022-11-15T01:24:13;8.90;99.90
45108;DHT22;30869;51.188;6.556;2022-11-15T01:26:41;9.20;99.90
45108;DHT22;30869;51.188;6.556;2022-11-15T01:29:07;9.10;99.90
45108;DHT22;30869;51.188;6.556;2022-11-15T01:31:33;9.10;99.90
45108;DHT22;30869;51.188;6.556;2022-11-15T01:33:59;9.20;99.90
45108;DHT22;30869;51.188;6.556;2022-11-15T01:36:25;9.20;99.90
45108;DHT22;30869;51.188;6.556;2022-11-15T01:38:55;9.10;99.90
45108;DHT22;30869;51.188;6.556;2022-11-15T01:41:27;9.30;99.90
45108;DHT22;30869;51.188;6.556;2022-11-15T01:43:56;9.30;99.90
45108;DHT22;30869;51.188;6.556;2022-11-15T01:46:35;9.40;99.90
45108;DHT22;30869;51.188;6.556;2022-11-15T01:49:05;9.30;99.90
45108;DHT22;30869;51.188;6.556;2022-11-15T01:51:36;9.20;99.90
45108;DHT22;30869;51.188;6.556;2022-11-15T01:54:06;9.40;99.90
45108;DHT22;30869;51.188;6.556;2022-11-15T01:56:41;9.30;99.90
45108;DHT22;30869;51.188;6.556;2022-11-15T01:59:09;9.40;99.90
45108;DHT22;30869;51.188;6.556;2022-11-15T02:01:36;9.50;99.90
45108;DHT22;30869;51.188;6.556;2022-11-15T02:06:38;9.30;99.90
45108;DHT22;30869;51.188;6.556;2022-11-15T02:09:04;9.30;99.90
45108;DHT22;30869;51.188;6.556;2022-11-15T02:11:30;9.20;99.90
45108;DHT22;30869;51.188;6.556;2022-11-15T02:13:57;9.30;99.90
45108;DHT22;30869;51.188;6.556;2022-11-15T02:16:29;9.40;99.90
45108;DHT22;30869;51.188;6.556;2022-11-15T02:19:15;9.30;99.90
45108;DHT22;30869;51.188;6.556;2022-11-15T02:28:14;9.20;99.90
45108;DHT22;30869;51.188;6.556;2022-11-15T02:36:40;9.40;99.90
45108;DHT22;30869;51.188;6.556;2022-11-15T02:39:31;9.40;99.90
45108;DHT22;30869;51.188;6.556;2022-11-15T02:42:08;9.20;99.90
45108;DHT22;30869;51.188;6.556;2022-11-15T02:44:58;9.30;99.90
45108;DHT22;30869;51.188;6.556;2022-11-15T02:47:30;9.30;99.90
45108;DHT22;30869;51.188;6.556;2022-11-15T02:50:00;9.10;99.90
45108;DHT22;30869;51.188;6.556;2022-11-15T02:52:27;9.10;99.90
45108;DHT22;30869;51.188;6.556;2022-11-15T02:54:58;9.10;99.90
45108;DHT22;30869;51.188;6.556;2022-11-15T02:57:51;9.20;99.90
45108;DHT22;30869;51.188;6.556;2022-11-15T03:00:19;9.20;99.90
45108;DHT22;30869;51.188;6.556;2022-11-15T03:05:51;9.00;99.90
45108;DHT22;30869;51.188;6.556;2022-11-15T03:09:07;9.10;99.90
45108;DHT22;30869;51.188;6.556;2022-11-15T03:11:17;9.00;99.90
45108;DHT22;30869;51.188;6.556;2022-11-15T03:14:00;8.90;99.90
45108;DHT22;30869;51.188;6.556;2022-11-15T03:18:58;9.30;99.90
45108;DHT22;30869;51.188;6.556;2022-11-15T03:21:28;9.20;99.90
45108;DHT22;30869;51.188;6.556;2022-11-15T03:23:58;9.40;99.90
45108;DHT22;30869;51.188;6.556;2022-11-15T03:29:29;9.70;99.90
45108;DHT22;30869;51.188;6.556;2022-11-15T03:32:02;9.40;99.90
45108;DHT22;30869;51.188;6.556;2022-11-15T03:34:37;9.60;99.90
45108;DHT22;30869;51.188;6.556;2022-11-15T03:37:04;9.60;99.90
45108;DHT22;30869;51.188;6.556;2022-11-15T03:39:48;9.70;99.90
45108;DHT22;30869;51.188;6.556;2022-11-15T03:42:32;9.90;99.90
45108;DHT22;30869;51.188;6.556;2022-11-15T03:45:27;9.90;99.90
45108;DHT22;30869;51.188;6.556;2022-11-15T03:48:10;9.90;99.90
45108;DHT22;30869;51.188;6.556;2022-11-15T03:50:39;9.60;99.90
45108;DHT22;30869;51.188;6.556;2022-11-15T03:53:47;9.70;99.90
45108;DHT22;30869;51.188;6.556;2022-11-15T03:56:14;9.60;99.90
45108;DHT22;30869;51.188;6.556;2022-11-15T03:58:51;9.90;99.90
45108;DHT22;30869;51.188;6.556;2022-11-15T04:01:17;10.00;99.90
45108;DHT22;30869;51.188;6.556;2022-11-15T04:03:43;10.00;99.90
45108;DHT22;30869;51.188;6.556;2022-11-15T04:06:09;9.80;99.90
45108;DHT22;30869;51.188;6.556;2022-11-15T04:08:38;9.80;99.90
45108;DHT22;30869;51.188;6.556;2022-11-15T04:11:04;9.80;99.90
45108;DHT22;30869;51.188;6.556;2022-11-15T04:13:30;9.80;99.90
45108;DHT22;30869;51.188;6.556;2022-11-15T04:15:56;9.60;99.90
45108;DHT22;30869;51.188;6.556;2022-11-15T04:18:22;9.60;99.90
45108;DHT22;30869;51.188;6.556;2022-11-15T04:20:48;9.70;99.90
45108;DHT22;30869;51.188;6.556;2022-11-15T04:23:42;9.80;99.90
45108;DHT22;30869;51.188;6.556;2022-11-15T04:26:27;9.70;99.90
45108;DHT22;30869;51.188;6.556;2022-11-15T04:28:53;9.50;99.90
45108;DHT22;30869;51.188;6.556;2022-11-15T04:31:43;9.60;99.90
45108;DHT22;30869;51.188;6.556;2022-11-15T04:34:09;9.90;99.90
45108;DHT22;30869;51.188;6.556;2022-11-15T04:36:38;9.80;99.90
45108;DHT22;30869;51.188;6.556;2022-11-15T04:39:23;9.90;99.90
45108;DHT22;30869;51.188;6.556;2022-11-15T04:41:49;9.90;99.90
45108;DHT22;30869;51.188;6.556;2022-11-15T04:44:14;9.60;99.90
45108;DHT22;30869;51.188;6.556;2022-11-15T04:46:40;9.60;99.90
45108;DHT22;30869;51.188;6.556;2022-11-15T04:49:06;9.70;99.90
45108;DHT22;30869;51.188;6.556;2022-11-15T04:51:33;9.70;99.90
45108;DHT22;30869;51.188;6.556;2022-11-15T04:53:59;9.80;99.90
45108;DHT22;30869;51.188;6.556;2022-11-15T04:56:24;9.90;99.90
45108;DHT22;30869;51.188;6.556;2022-11-15T04:58:51;9.70;99.90
45108;DHT22;30869;51.188;6.556;2022-11-15T05:01:19;10.00;99.90
45108;DHT22;30869;51.188;6.556;2022-11-15T05:03:45;9.70;99.90
45108;DHT22;30869;51.188;6.556;2022-11-15T05:06:31;9.90;99.90
45108;DHT22;30869;51.188;6.556;2022-11-15T05:08:58;9.70;99.90
45108;DHT22;30869;51.188;6.556;2022-11-15T05:11:24;10.10;99.90
45108;DHT22;30869;51.188;6.556;2022-11-15T05:13:50;9.70;99.90
45108;DHT22;30869;51.188;6.556;2022-11-15T05:16:16;9.60;99.90
45108;DHT22;30869;51.188;6.556;2022-11-15T05:18:43;9.60;99.90
45108;DHT22;30869;51.188;6.556;2022-11-15T05:21:12;9.60;99.90
45108;DHT22;30869;51.188;6.556;2022-11-15T05:23:39;9.80;99.90
45108;DHT22;30869;51.188;6.556;2022-11-15T05:26:06;9.60;99.90
45108;DHT22;30869;51.188;6.556;2022-11-15T05:28:33;9.70;99.90
45108;DHT22;30869;51.188;6.556;2022-11-15T05:31:10;9.70;99.90
45108;DHT22;30869;51.188;6.556;2022-11-15T05:34:04;9.70;99.90
45108;DHT22;30869;51.188;6.556;2022-11-15T05:37:27;9.70;99.90
45108;DHT22;30869;51.188;6.556;2022-11-15T05:40:44;9.80;99.90
45108;DHT22;30869;51.188;6.556;2022-11-15T05:43:39;9.60;99.90
45108;DHT22;30869;51.188;6.556;2022-11-15T05:46:07;9.60;99.90
45108;DHT22;30869;51.188;6.556;2022-11-15T05:48:34;9.40;99.90
45108;DHT22;30869;51.188;6.556;2022-11-15T05:51:02;9.30;99.90
45108;DHT22;30869;51.188;6.556;2022-11-15T05:53:29;9.30;99.90
45108;DHT22;30869;51.188;6.556;2022-11-15T05:55:56;9.70;99.90
45108;DHT22;30869;51.188;6.556;2022-11-15T05:58:22;9.70;99.90
45108;DHT22;30869;51.188;6.556;2022-11-15T06:00:47;9.80;99.90
45108;DHT22;30869;51.188;6.556;2022-11-15T06:03:13;9.70;99.90
45108;DHT22;30869;51.188;6.556;2022-11-15T06:05:39;9.60;99.90
45108;DHT22;30869;51.188;6.556;2022-11-15T06:08:05;9.50;99.90
45108;DHT22;30869;51.188;6.556;2022-11-15T06:10:31;9.70;99.90
45108;DHT22;30869;51.188;6.556;2022-11-15T06:13:02;9.70;99.90
45108;DHT22;30869;51.188;6.556;2022-11-15T06:15:29;9.60;99.90
45108;DHT22;30869;51.188;6.556;2022-11-15T06:17:58;9.60;99.90
45108;DHT22;30869;51.188;6.556;2022-11-15T06:20:25;9.50;99.90
45108;DHT22;30869;51.188;6.556;2022-11-15T06:22:59;9.50;99.90
45108;DHT22;30869;51.188;6.556;2022-11-15T06:25:29;9.70;99.90
45108;DHT22;30869;51.188;6.556;2022-11-15T06:27:58;9.70;99.90
45108;DHT22;30869;51.188;6.556;2022-11-15T06:30:24;9.80;99.90
45108;DHT22;30869;51.188;6.556;2022-11-15T06:32:50;9.90;99.90
45108;DHT22;30869;51.188;6.556;2022-11-15T06:35:16;9.70;99.90
45108;DHT22;30869;51.188;6.556;2022-11-15T06:37:42;9.50;99.90
45108;DHT22;30869;51.188;6.556;2022-11-15T06:40:09;9.70;99.90
45108;DHT22;30869;51.188;6.556;2022-11-15T06:42:35;9.80;99.90
45108;DHT22;30869;51.188;6.556;2022-11-15T06:45:01;9.80;99.90
45108;DHT22;30869;51.188;6.556;2022-11-15T06:47:27;9.70;99.90
45108;DHT22;30869;51.188;6.556;2022-11-15T06:49:53;9.70;99.90
45108;DHT22;30869;51.188;6.556;2022-11-15T06:52:19;9.70;99.90
45108;DHT22;30869;51.188;6.556;2022-11-15T06:54:45;9.80;99.90
45108;DHT22;30869;51.188;6.556;2022-11-15T06:57:11;9.90;99.90
45108;DHT22;30869;51.188;6.556;2022-11-15T06:59:37;9.90;99.90
45108;DHT22;30869;51.188;6.556;2022-11-15T07:02:03;9.90;99.90
45108;DHT22;30869;51.188;6.556;2022-11-15T07:04:29;9.90;99.90
45108;DHT22;30869;51.188;6.556;2022-11-15T07:06:54;9.80;99.90
45108;DHT22;30869;51.188;6.556;2022-11-15T07:09:20;9.70;99.90
45108;DHT22;30869;51.188;6.556;2022-11-15T07:11:45;9.60;99.90
45108;DHT22;30869;51.188;6.556;2022-11-15T07:14:11;9.50;99.90
45108;DHT22;30869;51.188;6.556;2022-11-15T07:16:37;9.40;99.90
45108;DHT22;30869;51.188;6.556;2022-11-15T07:19:03;9.30;99.90
45108;DHT22;30869;51.188;6.556;2022-11-15T07:21:29;9.20;99.90
45108;DHT22;30869;51.188;6.556;2022-11-15T07:23:54;9.20;99.90
45108;DHT22;30869;51.188;6.556;2022-11-15T07:26:20;9.20;99.90
45108;DHT22;30869;51.188;6.556;2022-11-15T07:28:46;9.10;99.90
45108;DHT22;30869;51.188;6.556;2022-11-15T07:31:12;9.10;99.90
45108;DHT22;30869;51.188;6.556;2022-11-15T07:33:37;9.20;99.90
45108;DHT22;30869;51.188;6.556;2022-11-15T07:36:05;9.30;99.90
45108;DHT22;30869;51.188;6.556;2022-11-15T07:38:32;9.20;99.90
45108;DHT22;30869;51.188;6.556;2022-11-15T07:41:00;9.30;99.90
45108;DHT22;30869;51.188;6.556;2022-11-15T07:43:26;9.30;99.90
45108;DHT22;30869;51.188;6.556;2022-11-15T07:45:55;9.40;99.90
45108;DHT22;30869;51.188;6.556;2022-11-15T07:48:21;9.30;99.90
45108;DHT22;30869;51.188;6.556;2022-11-15T07:50:47;9.20;99.90
45108;DHT22;30869;51.188;6.556;2022-11-15T07:53:13;9.30;99.90
45108;DHT22;30869;51.188;6.556;2022-11-15T07:55:40;9.30;99.90
45108;DHT22;30869;51.188;6.556;2022-11-15T07:58:08;9.30;99.90
45108;DHT22;30869;51.188;6.556;2022-11-15T08:00:35;9.30;99.90
45108;DHT22;30869;51.188;6.556;2022-11-15T08:03:12;9.20;99.90
45108;DHT22;30869;51.188;6.556;2022-11-15T08:05:39;9.30;99.90
45108;DHT22;30869;51.188;6.556;2022-11-15T08:08:05;9.50;99.90
45108;DHT22;30869;51.188;6.556;2022-11-15T08:10:31;9.40;99.90
45108;DHT22;30869;51.188;6.556;2022-11-15T08:13:05;9.40;99.90
45108;DHT22;30869;51.188;6.556;2022-11-15T08:15:32;9.40;99.90
45108;DHT22;30869;51.188;6.556;2022-11-15T08:18:00;9.40;99.90
45108;DHT22;30869;51.188;6.556;2022-11-15T08:20:27;9.40;99.90
45108;DHT22;30869;51.188;6.556;2022-11-15T08:22:58;9.50;99.90
45108;DHT22;30869;51.188;6.556;2022-11-15T08:25:25;9.60;99.90
45108;DHT22;30869;51.188;6.556;2022-11-15T08:27:55;9.60;99.90
45108;DHT22;30869;51.188;6.556;2022-11-15T08:30:22;9.70;99.90
45108;DHT22;30869;51.188;6.556;2022-11-15T08:32:48;9.60;99.90
45108;DHT22;30869;51.188;6.556;2022-11-15T08:35:14;9.70;99.90
45108;DHT22;30869;51.188;6.556;2022-11-15T08:37:40;9.70;99.90
45108;DHT22;30869;51.188;6.556;2022-11-15T08:40:06;9.80;99.90
45108;DHT22;30869;51.188;6.556;2022-11-15T08:42:32;9.60;99.90
45108;DHT22;30869;51.188;6.556;2022-11-15T08:44:58;9.70;99.90
45108;DHT22;30869;51.188;6.556;2022-11-15T08:47:24;9.80;99.90
45108;DHT22;30869;51.188;6.556;2022-11-15T08:49:51;9.80;99.90
45108;DHT22;30869;51.188;6.556;2022-11-15T08:52:16;10.00;99.90
45108;DHT22;30869;51.188;6.556;2022-11-15T08:54:42;9.90;99.90
45108;DHT22;30869;51.188;6.556;2022-11-15T08:57:08;10.00;99.90
45108;DHT22;30869;51.188;6.556;2022-11-15T08:59:35;10.10;99.90
45108;DHT22;30869;51.188;6.556;2022-11-15T09:02:01;10.10;99.90
45108;DHT22;30869;51.188;6.556;2022-11-15T09:04:26;10.30;99.90
45108;DHT22;30869;51.188;6.556;2022-11-15T09:06:52;10.40;99.90
45108;DHT22;30869;51.188;6.556;2022-11-15T09:09:18;10.40;99.90
45108;DHT22;30869;51.188;6.556;2022-11-15T09:11:43;10.40;99.90
45108;DHT22;30869;51.188;6.556;2022-11-15T09:14:11;10.30;99.90
45108;DHT22;30869;51.188;6.556;2022-11-15T09:16:37;10.30;99.90
45108;DHT22;30869;51.188;6.556;2022-11-15T09:19:03;10.40;99.90
45108;DHT22;30869;51.188;6.556;2022-11-15T09:21:32;10.50;99.90
45108;DHT22;30869;51.188;6.556;2022-11-15T09:23:58;10.50;99.90
45108;DHT22;30869;51.188;6.556;2022-11-15T09:26:24;10.40;99.90
45108;DHT22;30869;51.188;6.556;2022-11-15T09:28:49;10.40;99.90
45108;DHT22;30869;51.188;6.556;2022-11-15T09:31:15;10.40;99.90
45108;DHT22;30869;51.188;6.556;2022-11-15T09:33:44;10.40;99.90
45108;DHT22;30869;51.188;6.556;2022-11-15T09:36:11;10.40;99.90
45108;DHT22;30869;51.188;6.556;2022-11-15T09:38:37;10.20;99.90
45108;DHT22;30869;51.188;6.556;2022-11-15T09:41:25;10.00;99.90
45108;DHT22;30869;51.188;6.556;2022-11-15T09:49:31;10.30;99.90
45108;DHT22;30869;51.188;6.556;2022-11-15T09:51:58;10.30;99.90
45108;DHT22;30869;51.188;6.556;2022-11-15T09:54:47;10.30;99.90
45108;DHT22;30869;51.188;6.556;2022-11-15T10:05:12;10.30;99.90
45108;DHT22;30869;51.188;6.556;2022-11-15T10:10:47;10.50;99.90
45108;DHT22;30869;51.188;6.556;2022-11-15T10:13:20;10.60;99.90
45108;DHT22;30869;51.188;6.556;2022-11-15T10:15:48;10.50;99.90
45108;DHT22;30869;51.188;6.556;2022-11-15T10:18:35;10.50;99.90
45108;DHT22;30869;51.188;6.556;2022-11-15T10:21:26;10.50;99.90
45108;DHT22;30869;51.188;6.556;2022-11-15T10:23:55;10.40;99.90
45108;DHT22;30869;51.188;6.556;2022-11-15T10:26:21;10.30;99.90
45108;DHT22;30869;51.188;6.556;2022-11-15T10:28:48;10.30;99.90
45108;DHT22;30869;51.188;6.556;2022-11-15T10:31:28;10.30;99.90
45108;DHT22;30869;51.188;6.556;2022-11-15T10:34:21;10.40;99.90
45108;DHT22;30869;51.188;6.556;2022-11-15T10:36:55;10.30;99.90
45108;DHT22;30869;51.188;6.556;2022-11-15T10:39:21;10.40;99.90
45108;DHT22;30869;51.188;6.556;2022-11-15T10:41:47;10.40;99.90
45108;DHT22;30869;51.188;6.556;2022-11-15T10:46:43;10.50;99.90
45108;DHT22;30869;51.188;6.556;2022-11-15T10:49:19;10.50;99.90
45108;DHT22;30869;51.188;6.556;2022-11-15T10:51:52;10.70;99.90
45108;DHT22;30869;51.188;6.556;2022-11-15T10:54:29;10.60;99.90
45108;DHT22;30869;51.188;6.556;2022-11-15T10:57:06;10.50;99.90
45108;DHT22;30869;51.188;6.556;2022-11-15T10:59:36;10.50;99.90
45108;DHT22;30869;51.188;6.556;2022-11-15T11:02:20;10.60;99.90
45108;DHT22;30869;51.188;6.556;2022-11-15T11:04:52;10.50;99.90
45108;DHT22;30869;51.188;6.556;2022-11-15T11:07:29;10.30;99.90
45108;DHT22;30869;51.188;6.556;2022-11-15T11:10:01;10.40;99.90
45108;DHT22;30869;51.188;6.556;2022-11-15T11:12:33;10.50;99.90
45108;DHT22;30869;51.188;6.556;2022-11-15T11:15:10;10.70;99.90
45108;DHT22;30869;51.188;6.556;2022-11-15T11:20:32;10.70;99.90
45108;DHT22;30869;51.188;6.556;2022-11-15T11:23:28;10.60;99.90
45108;DHT22;30869;51.188;6.556;2022-11-15T11:50:32;10.50;99.90
45108;DHT22;30869;51.188;6.556;2022-11-15T11:55:49;10.90;99.90
45108;DHT22;30869;51.188;6.556;2022-11-15T11:58:33;10.90;99.90
45108;DHT22;30869;51.188;6.556;2022-11-15T12:03:50;10.90;99.90
45108;DHT22;30869;51.188;6.556;2022-11-15T12:17:26;11.20;99.90
45108;DHT22;30869;51.188;6.556;2022-11-15T12:19:56;11.50;99.90
45108;DHT22;30869;51.188;6.556;2022-11-15T12:22:35;11.30;99.90
45108;DHT22;30869;51.188;6.556;2022-11-15T12:25:23;11.20;99.90
45108;DHT22;30869;51.188;6.556;2022-11-15T12:30:55;11.30;99.90
45108;DHT22;30869;51.188;6.556;2022-11-15T12:33:40;11.10;99.90
45108;DHT22;30869;51.188;6.556;2022-11-15T12:38:59;11.10;99.90
45108;DHT22;30869;51.188;6.556;2022-11-15T12:41:31;11.30;99.90
45108;DHT22;30869;51.188;6.556;2022-11-15T12:43:58;11.60;99.90
45108;DHT22;30869;51.188;6.556;2022-11-15T12:49:11;12.10;99.90
45108;DHT22;30869;51.188;6.556;2022-11-15T12:59:49;11.50;99.90
45108;DHT22;30869;51.188;6.556;2022-11-15T13:02:32;11.60;99.90
45108;DHT22;30869;51.188;6.556;2022-11-15T13:12:57;11.60;99.90
45108;DHT22;30869;51.188;6.556;2022-11-15T13:15:56;11.60;99.90
45108;DHT22;30869;51.188;6.556;2022-11-15T13:18:34;11.40;99.90
45108;DHT22;30869;51.188;6.556;2022-11-15T13:21:02;11.50;99.90
45108;DHT22;30869;51.188;6.556;2022-11-15T13:23:54;11.40;99.90
45108;DHT22;30869;51.188;6.556;2022-11-15T13:26:21;11.50;99.90
45108;DHT22;30869;51.188;6.556;2022-11-15T13:28:48;11.40;99.90
45108;DHT22;30869;51.188;6.556;2022-11-15T13:31:37;11.30;99.90
45108;DHT22;30869;51.188;6.556;2022-11-15T13:34:31;11.30;99.90
45108;DHT22;30869;51.188;6.556;2022-11-15T13:37:01;11.60;99.90
45108;DHT22;30869;51.188;6.556;2022-11-15T13:39:36;11.50;99.90
45108;DHT22;30869;51.188;6.556;2022-11-15T13:42:03;11.60;99.90
45108;DHT22;30869;51.188;6.556;2022-11-15T13:44:31;11.40;99.90
45108;DHT22;30869;51.188;6.556;2022-11-15T13:47:14;11.60;99.90
45108;DHT22;30869;51.188;6.556;2022-11-15T13:49:40;11.80;99.90
45108;DHT22;30869;51.188;6.556;2022-11-15T13:52:09;11.90;99.90
45108;DHT22;30869;51.188;6.556;2022-11-15T13:59:47;11.90;99.90
45108;DHT22;30869;51.188;6.556;2022-11-15T14:02:17;12.50;99.90
45108;DHT22;30869;51.188;6.556;2022-11-15T14:04:52;12.40;99.90
45108;DHT22;30869;51.188;6.556;2022-11-15T14:07:21;11.90;99.90
45108;DHT22;30869;51.188;6.556;2022-11-15T14:09:47;11.70;99.90
45108;DHT22;30869;51.188;6.556;2022-11-15T14:14:57;11.90;99.90
45108;DHT22;30869;51.188;6.556;2022-11-15T14:19:55;12.10;99.90
45108;DHT22;30869;51.188;6.556;2022-11-15T14:22:22;12.10;99.90
45108;DHT22;30869;51.188;6.556;2022-11-15T14:27:37;12.30;99.90
45108;DHT22;30869;51.188;6.556;2022-11-15T14:30:03;12.20;99.90
45108;DHT22;30869;51.188;6.556;2022-11-15T14:35:14;11.70;99.90
45108;DHT22;30869;51.188;6.556;2022-11-15T14:37:40;11.80;99.90
45108;DHT22;30869;51.188;6.556;2022-11-15T14:40:06;11.70;99.90
45108;DHT22;30869;51.188;6.556;2022-11-15T14:42:35;11.60;99.90
45108;DHT22;30869;51.188;6.556;2022-11-15T14:45:00;11.70;99.90
45108;DHT22;30869;51.188;6.556;2022-11-15T14:47:26;11.70;99.90
45108;DHT22;30869;51.188;6.556;2022-11-15T14:49:52;11.40;99.90
45108;DHT22;30869;51.188;6.556;2022-11-15T14:52:25;11.30;99.90
45108;DHT22;30869;51.188;6.556;2022-11-15T14:54:54;11.70;99.90
45108;DHT22;30869;51.188;6.556;2022-11-15T14:57:20;11.70;99.90
45108;DHT22;30869;51.188;6.556;2022-11-15T14:59:46;11.80;99.90
45108;DHT22;30869;51.188;6.556;2022-11-15T15:02:23;12.00;99.90
45108;DHT22;30869;51.188;6.556;2022-11-15T15:04:50;12.00;99.90
45108;DHT22;30869;51.188;6.556;2022-11-15T15:07:17;11.80;99.90
45108;DHT22;30869;51.188;6.556;2022-11-15T15:09:44;11.80;99.90
45108;DHT22;30869;51.188;6.556;2022-11-15T15:14:42;12.10;99.90
45108;DHT22;30869;51.188;6.556;2022-11-15T15:17:08;12.10;99.90
45108;DHT22;30869;51.188;6.556;2022-11-15T15:19:34;12.20;99.90
45108;DHT22;30869;51.188;6.556;2022-11-15T15:22:00;11.90;99.90
45108;DHT22;30869;51.188;6.556;2022-11-15T15:24:26;11.80;99.90
45108;DHT22;30869;51.188;6.556;2022-11-15T15:26:51;12.00;99.90
45108;DHT22;30869;51.188;6.556;2022-11-15T15:29:17;11.80;99.90
45108;DHT22;30869;51.188;6.556;2022-11-15T15:31:43;11.90;99.90
45108;DHT22;30869;51.188;6.556;2022-11-15T15:34:09;11.70;99.90
45108;DHT22;30869;51.188;6.556;2022-11-15T15:36:34;11.70;99.90
45108;DHT22;30869;51.188;6.556;2022-11-15T15:39:00;11.70;99.90
45108;DHT22;30869;51.188;6.556;2022-11-15T15:41:26;11.40;99.90
45108;DHT22;30869;51.188;6.556;2022-11-15T15:43:52;11.40;99.90
45108;DHT22;30869;51.188;6.556;2022-11-15T15:46:19;11.70;99.90
45108;DHT22;30869;51.188;6.556;2022-11-15T15:48:45;11.70;99.90
45108;DHT22;30869;51.188;6.556;2022-11-15T15:51:11;11.60;99.90
45108;DHT22;30869;51.188;6.556;2022-11-15T15:53:37;11.60;99.90
45108;DHT22;30869;51.188;6.556;2022-11-15T15:56:04;11.60;99.90
45108;DHT22;30869;51.188;6.556;2022-11-15T15:58:30;11.60;99.90
45108;DHT22;30869;51.188;6.556;2022-11-15T16:00:57;11.50;99.90
45108;DHT22;30869;51.188;6.556;2022-11-15T16:03:23;11.70;99.90
45108;DHT22;30869;51.188;6.556;2022-11-15T16:05:49;11.90;99.90
45108;DHT22;30869;51.188;6.556;2022-11-15T16:08:20;11.80;99.90
45108;DHT22;30869;51.188;6.556;2022-11-15T16:10:46;11.80;99.90
45108;DHT22;30869;51.188;6.556;2022-11-15T16:13:13;11.80;99.90
45108;DHT22;30869;51.188;6.556;2022-11-15T16:15:39;11.90;99.90
45108;DHT22;30869;51.188;6.556;2022-11-15T16:18:05;12.10;99.90
45108;DHT22;30869;51.188;6.556;2022-11-15T16:20:39;12.10;99.90
45108;DHT22;30869;51.188;6.556;2022-11-15T16:23:08;12.30;99.90
45108;DHT22;30869;51.188;6.556;2022-11-15T16:25:58;11.90;99.90
45108;DHT22;30869;51.188;6.556;2022-11-15T16:28:31;12.00;99.90
45108;DHT22;30869;51.188;6.556;2022-11-15T16:31:07;12.10;99.90
45108;DHT22;30869;51.188;6.556;2022-11-15T16:33:33;12.10;99.90
45108;DHT22;30869;51.188;6.556;2022-11-15T16:35:59;11.70;99.90
45108;DHT22;30869;51.188;6.556;2022-11-15T16:38:25;11.80;99.90
45108;DHT22;30869;51.188;6.556;2022-11-15T16:40:51;12.00;99.90
45108;DHT22;30869;51.188;6.556;2022-11-15T16:43:16;12.10;99.90
45108;DHT22;30869;51.188;6.556;2022-11-15T16:45:43;12.40;99.90
45108;DHT22;30869;51.188;6.556;2022-11-15T16:48:26;12.20;99.90
45108;DHT22;30869;51.188;6.556;2022-11-15T16:50:56;12.10;99.90
45108;DHT22;30869;51.188;6.556;2022-11-15T16:53:23;12.10;99.90
45108;DHT22;30869;51.188;6.556;2022-11-15T16:55:49;12.00;99.90
45108;DHT22;30869;51.188;6.556;2022-11-15T16:58:15;12.00;99.90
45108;DHT22;30869;51.188;6.556;2022-11-15T17:00:41;11.80;99.90
45108;DHT22;30869;51.188;6.556;2022-11-15T17:03:07;11.50;99.90
45108;DHT22;30869;51.188;6.556;2022-11-15T17:05:34;11.50;99.90
45108;DHT22;30869;51.188;6.556;2022-11-15T17:08:00;11.40;99.90
45108;DHT22;30869;51.188;6.556;2022-11-15T17:10:26;11.40;99.90
45108;DHT22;30869;51.188;6.556;2022-11-15T17:12:54;11.80;99.90
45108;DHT22;30869;51.188;6.556;2022-11-15T17:15:20;11.50;99.90
45108;DHT22;30869;51.188;6.556;2022-11-15T17:17:51;11.80;99.90
45108;DHT22;30869;51.188;6.556;2022-11-15T17:20:19;11.90;99.90
45108;DHT22;30869;51.188;6.556;2022-11-15T17:22:46;11.90;99.90
45108;DHT22;30869;51.188;6.556;2022-11-15T17:25:13;11.70;99.90
45108;DHT22;30869;51.188;6.556;2022-11-15T17:27:39;11.50;99.90
45108;DHT22;30869;51.188;6.556;2022-11-15T17:30:05;11.40;99.90
45108;DHT22;30869;51.188;6.556;2022-11-15T17:32:34;11.40;99.90
45108;DHT22;30869;51.188;6.556;2022-11-15T17:35:00;11.50;99.90
45108;DHT22;30869;51.188;6.556;2022-11-15T17:37:25;11.70;99.90
45108;DHT22;30869;51.188;6.556;2022-11-15T17:39:51;11.70;99.90
45108;DHT22;30869;51.188;6.556;2022-11-15T17:42:17;11.60;99.90
45108;DHT22;30869;51.188;6.556;2022-11-15T17:44:45;11.70;99.90
45108;DHT22;30869;51.188;6.556;2022-11-15T17:47:11;11.60;99.90
45108;DHT22;30869;51.188;6.556;2022-11-15T17:49:37;11.40;99.90
45108;DHT22;30869;51.188;6.556;2022-11-15T17:52:05;11.40;99.90
45108;DHT22;30869;51.188;6.556;2022-11-15T17:54:31;11.40;99.90
45108;DHT22;30869;51.188;6.556;2022-11-15T17:56:56;11.50;99.90
45108;DHT22;30869;51.188;6.556;2022-11-15T17:59:22;11.50;99.90
45108;DHT22;30869;51.188;6.556;2022-11-15T18:01:48;11.40;99.90
45108;DHT22;30869;51.188;6.556;2022-11-15T18:04:13;11.40;99.90
45108;DHT22;30869;51.188;6.556;2022-11-15T18:06:40;11.30;99.90